White Oak, Texas
Current Conditions -  °F | °C
As of 2:53 PM on Friday 24 Oct 2014 (Local Time) from KGGG Reporting Station
Clear Clear  
Wind Chill: 78°   Ceiling: Unl
Heat Index: 79°   Visibility: 10mi
Dew Point: 55°   Wind: 3mph
Humidity: 45%   Direction: 290°WNW
Pressure: 30.11"   Gusts: NA
Location:  32.52°N, 94.86°W
Report Text: KGGG 241953Z 29003KT 10SM CLR 26/13 A3011 RMK AO2 SLP192 T02560128
Loading
Personal Weather Stations






























Interactive Weather Map
Tropical Storm Tracking
New forecast layout! Learn more

10-Day Weather Forecast

Advertisements
Track Severe Weather on mobile